Time;durP1;ratioP1;P1;durP2;ratioP2;P2;SDS_P1;SDS_P2;PMS_P1;PMS_P2;Temp;Humidity;BMP_temperature;BMP_pressure;BME280_temperature;BME280_humidity;BME280_pressure;Samples;Min_cycle;Max_cycle;Signal;HPM_P1;HPM_P2
2022/12/02 00:02:49;;;;;;;20.05;8.27;;;;;;;;;;10387866;28;20029;-75
2022/12/02 00:07:51;;;;;;;25.05;10.70;;;;;;;;;;10390832;28;20021;-74
2022/12/02 00:12:52;;;;;;;20.48;9.18;;;;;;;;;;10432222;28;20056;-74
2022/12/02 00:17:52;;;;;;;18.77;8.70;;;;;;;;;;10434174;28;20031;-80
2022/12/02 00:22:53;;;;;;;14.07;7.03;;;;;;;;;;10426116;28;20037;-82
2022/12/02 00:27:53;;;;;;;11.32;6.53;;;;;;;;;;10375050;28;20047;-85
2022/12/02 00:32:54;;;;;;;12.60;5.97;;;;;;;;;;10405273;28;20072;-77
2022/12/02 00:37:55;;;;;;;10.07;4.93;;;;;;;;;;10404730;28;20108;-80
2022/12/02 00:46:30;;;;;;;8.93;5.00;;;;;;;;;;10364413;28;20469;-83
2022/12/02 00:48:15;;;;;;;9.55;5.35;;;;;;;;;;10363258;28;20021;-77
2022/12/02 00:53:15;;;;;;;10.50;5.68;;;;;;;;;;10370977;28;20450;-82
2022/12/02 00:58:16;;;;;;;10.95;5.03;;;;;;;;;;10388350;28;20032;-79
2022/12/02 01:03:16;;;;;;;10.18;4.45;;;;;;;;;;10401717;28;20032;-82
2022/12/02 01:08:16;;;;;;;8.82;4.35;;;;;;;;;;10403376;28;20059;-79
2022/12/02 01:13:16;;;;;;;9.13;4.32;;;;;;;;;;10401646;28;20048;-82
2022/12/02 01:18:17;;;;;;;8.38;4.65;;;;;;;;;;10385227;28;20025;-80
2022/12/02 01:23:17;;;;;;;7.82;4.15;;;;;;;;;;10388130;28;20026;-84
2022/12/02 01:28:17;;;;;;;8.23;4.60;;;;;;;;;;10400807;28;20080;-83
2022/12/02 01:33:18;;;;;;;6.57;3.77;;;;;;;;;;10388475;28;20102;-82
2022/12/02 01:38:19;;;;;;;6.80;3.72;;;;;;;;;;10404370;28;20399;-82
2022/12/02 01:43:20;;;;;;;7.00;3.58;;;;;;;;;;10400342;28;20025;-80
2022/12/02 01:48:21;;;;;;;8.27;5.18;;;;;;;;;;10384407;28;20021;-78
2022/12/02 01:53:21;;;;;;;7.32;4.32;;;;;;;;;;10383470;28;20021;-77
2022/12/02 01:58:26;;;;;;;6.65;3.70;;;;;;;;;;10402630;28;20025;-81
2022/12/02 02:03:26;;;;;;;8.02;4.53;;;;;;;;;;10385076;28;20044;-82
2022/12/02 02:08:26;;;;;;;7.03;5.38;;;;;;;;;;10403341;28;20039;-82
2022/12/02 02:13:28;;;;;;;9.70;5.05;;;;;;;;;;10400825;28;20132;-74
2022/12/02 02:18:28;;;;;;;10.23;5.57;;;;;;;;;;10441749;28;20557;-75
2022/12/02 02:23:28;;;;;;;7.00;4.20;;;;;;;;;;10427577;28;20404;-75
2022/12/02 02:28:29;;;;;;;9.88;5.57;;;;;;;;;;10395075;28;20260;-82
2022/12/02 02:33:30;;;;;;;12.77;5.55;;;;;;;;;;10385781;28;20035;-81
2022/12/02 02:38:33;;;;;;;10.43;5.80;;;;;;;;;;10385359;28;20380;-80
2022/12/02 02:43:35;;;;;;;13.00;5.47;;;;;;;;;;10384954;28;20498;-82
2022/12/02 02:48:35;;;;;;;11.75;4.80;;;;;;;;;;10385440;28;20053;-82
2022/12/02 02:53:43;;;;;;;10.57;5.37;;;;;;;;;;10386487;28;20491;-83
2022/12/02 02:58:44;;;;;;;10.35;5.90;;;;;;;;;;10408092;28;20272;-80
2022/12/02 03:03:47;;;;;;;11.73;5.60;;;;;;;;;;10437093;22;20061;-79
2022/12/02 03:08:48;;;;;;;13.75;6.40;;;;;;;;;;10391295;28;20151;-81
2022/12/02 03:13:49;;;;;;;17.27;10.48;;;;;;;;;;10405628;28;20017;-82
2022/12/02 03:18:51;;;;;;;26.20;12.32;;;;;;;;;;10410215;28;20017;-81
2022/12/02 03:23:53;;;;;;;21.23;11.00;;;;;;;;;;10407536;28;20032;-79
2022/12/02 03:28:54;;;;;;;23.20;12.45;;;;;;;;;;10407433;28;20033;-85
2022/12/02 03:33:55;;;;;;;22.30;10.88;;;;;;;;;;10392367;28;20033;-82
2022/12/02 03:38:56;;;;;;;24.70;10.85;;;;;;;;;;10408257;28;20025;-78
2022/12/02 03:43:57;;;;;;;23.47;10.57;;;;;;;;;;10390300;28;20036;-85
2022/12/02 03:48:57;;;;;;;24.67;12.43;;;;;;;;;;10376896;28;20462;-84
2022/12/02 03:53:58;;;;;;;21.88;11.38;;;;;;;;;;10377138;28;20029;-83
2022/12/02 03:58:59;;;;;;;21.00;11.38;;;;;;;;;;10405185;28;20033;-80
2022/12/02 04:04:01;;;;;;;19.55;10.15;;;;;;;;;;10387705;28;20065;-82
2022/12/02 04:09:01;;;;;;;15.70;9.32;;;;;;;;;;10403766;28;20036;-76
2022/12/02 04:14:01;;;;;;;18.05;9.52;;;;;;;;;;10403314;28;20048;-77
2022/12/02 04:19:01;;;;;;;17.48;10.20;;;;;;;;;;10417020;28;20112;-77
2022/12/02 04:24:05;;;;;;;17.00;8.50;;;;;;;;;;10409665;28;20089;-82
2022/12/02 04:29:05;;;;;;;18.00;9.15;;;;;;;;;;10416161;28;20040;-77
2022/12/02 04:34:05;;;;;;;17.90;8.70;;;;;;;;;;10402439;28;20022;-77
2022/12/02 04:39:06;;;;;;;19.15;9.68;;;;;;;;;;10408152;28;20059;-78
2022/12/02 04:44:06;;;;;;;16.80;9.13;;;;;;;;;;10385814;28;20025;-82
2022/12/02 04:49:06;;;;;;;27.02;10.13;;;;;;;;;;10396319;28;20117;-79
2022/12/02 04:54:07;;;;;;;26.85;10.63;;;;;;;;;;10396138;28;20515;-80
2022/12/02 04:59:07;;;;;;;22.07;9.60;;;;;;;;;;10402193;28;20025;-80
2022/12/02 05:04:07;;;;;;;23.98;9.90;;;;;;;;;;10380168;28;20536;-76
2022/12/02 05:09:07;;;;;;;27.42;11.18;;;;;;;;;;10389117;28;20454;-82
2022/12/02 05:14:08;;;;;;;27.80;10.43;;;;;;;;;;10399007;28;20025;-82
2022/12/02 05:19:08;;;;;;;23.67;10.73;;;;;;;;;;10403626;28;20032;-81
2022/12/02 05:24:08;;;;;;;31.25;11.68;;;;;;;;;;10411451;28;20028;-80
2022/12/02 05:29:09;;;;;;;25.60;11.98;;;;;;;;;;10394963;28;20033;-79
2022/12/02 05:34:09;;;;;;;29.42;11.55;;;;;;;;;;10399879;28;20025;-84
2022/12/02 05:39:09;;;;;;;133.85;16.00;;;;;;;;;;10400668;28;20071;-76
2022/12/02 05:44:23;;;;;;;26.77;11.82;;;;;;;;;;10400494;28;20107;-81
2022/12/02 05:49:25;;;;;;;25.83;10.13;;;;;;;;;;10349863;28;20455;-83
2022/12/02 05:54:26;;;;;;;26.02;11.13;;;;;;;;;;10399749;28;20021;-84
2022/12/02 05:59:28;;;;;;;36.75;13.80;;;;;;;;;;10382491;28;20069;-83
2022/12/02 06:04:30;;;;;;;25.60;12.35;;;;;;;;;;10381754;28;20434;-84
2022/12/02 06:09:32;;;;;;;29.95;12.48;;;;;;;;;;10391514;28;20384;-82
2022/12/02 06:14:33;;;;;;;29.40;12.35;;;;;;;;;;10386519;28;20026;-76
2022/12/02 06:19:42;;;;;;;33.63;14.20;;;;;;;;;;10372081;28;20490;-80
2022/12/02 06:24:42;;;;;;;29.50;13.50;;;;;;;;;;10387832;28;20466;-78
2022/12/02 06:29:48;;;;;;;35.47;14.40;;;;;;;;;;10358757;28;20144;-76
2022/12/02 06:34:50;;;;;;;32.92;12.75;;;;;;;;;;10402444;28;20033;-76
2022/12/02 06:39:58;;;;;;;25.55;11.70;;;;;;;;;;10402778;28;20030;-77
2022/12/02 06:45:05;;;;;;;26.63;12.00;;;;;;;;;;10380898;28;20030;-76
2022/12/02 06:50:05;;;;;;;37.15;14.65;;;;;;;;;;10403956;28;20025;-81
2022/12/02 06:55:10;;;;;;;32.65;14.23;;;;;;;;;;10405394;28;20112;-75
2022/12/02 07:00:11;;;;;;;41.20;17.42;;;;;;;;;;10405612;28;20021;-79
2022/12/02 07:05:17;;;;;;;52.38;18.85;;;;;;;;;;10405494;28;20061;-76
2022/12/02 07:10:26;;;;;;;52.70;19.77;;;;;;;;;;10405652;28;20705;-82
2022/12/02 07:15:30;;;;;;;45.55;17.52;;;;;;;;;;10399890;28;20487;-82
2022/12/02 07:20:32;;;;;;;41.53;15.43;;;;;;;;;;10397655;28;20029;-81
2022/12/02 07:25:34;;;;;;;31.33;13.02;;;;;;;;;;10405200;28;20437;-82
2022/12/02 07:30:39;;;;;;;35.80;13.65;;;;;;;;;;10397265;28;20462;-83
2022/12/02 07:35:39;;;;;;;36.22;15.18;;;;;;;;;;10397863;28;20492;-82
2022/12/02 07:40:41;;;;;;;40.00;15.20;;;;;;;;;;10399985;28;20021;-77
2022/12/02 07:45:42;;;;;;;30.88;14.13;;;;;;;;;;10413773;28;20022;-76
2022/12/02 07:50:42;;;;;;;30.40;14.20;;;;;;;;;;10373094;28;20022;-75
2022/12/02 07:55:42;;;;;;;29.58;14.05;;;;;;;;;;10392847;28;20091;-76
2022/12/02 08:00:43;;;;;;;28.27;12.63;;;;;;;;;;10391317;28;20038;-77
2022/12/02 08:05:43;;;;;;;40.17;15.93;;;;;;;;;;10379119;28;21282;-76
2022/12/02 08:10:43;;;;;;;24.08;13.55;;;;;;;;;;10395093;28;20033;-75
2022/12/02 08:15:44;;;;;;;32.90;13.70;;;;;;;;;;10362928;28;20029;-85
2022/12/02 08:20:44;;;;;;;26.15;13.77;;;;;;;;;;10396356;28;20088;-81
2022/12/02 08:25:44;;;;;;;29.60;15.00;;;;;;;;;;10395977;28;20063;-75
2022/12/02 08:30:46;;;;;;;31.35;15.23;;;;;;;;;;10380764;28;20033;-82
2022/12/02 08:35:47;;;;;;;30.77;14.48;;;;;;;;;;10402553;28;20029;-83
2022/12/02 08:40:48;;;;;;;31.20;15.57;;;;;;;;;;10402360;28;20033;-75
2022/12/02 08:45:48;;;;;;;32.38;16.05;;;;;;;;;;10394846;28;20148;-78
2022/12/02 08:50:48;;;;;;;35.93;17.23;;;;;;;;;;10395084;28;20026;-80
2022/12/02 08:55:48;;;;;;;39.95;18.00;;;;;;;;;;10404403;28;20116;-78
2022/12/02 09:00:49;;;;;;;32.50;16.85;;;;;;;;;;10375947;28;20037;-81
2022/12/02 09:05:51;;;;;;;36.42;16.10;;;;;;;;;;10398156;28;20105;-82
2022/12/02 09:10:51;;;;;;;39.58;18.00;;;;;;;;;;10392989;28;20036;-83
2022/12/02 09:15:51;;;;;;;34.78;17.67;;;;;;;;;;10397710;28;20032;-76
2022/12/02 09:20:52;;;;;;;36.42;18.13;;;;;;;;;;10382978;28;20684;-80
2022/12/02 09:25:53;;;;;;;45.35;18.52;;;;;;;;;;10402514;28;20041;-77
2022/12/02 09:30:54;;;;;;;39.20;18.60;;;;;;;;;;10381751;28;20415;-81
2022/12/02 09:35:54;;;;;;;45.67;21.90;;;;;;;;;;10377086;28;20030;-75
2022/12/02 09:40:55;;;;;;;41.35;20.98;;;;;;;;;;10370737;28;20029;-81
2022/12/02 09:45:55;;;;;;;48.15;21.42;;;;;;;;;;10360285;28;20026;-81
2022/12/02 09:50:56;;;;;;;46.28;21.40;;;;;;;;;;10375493;28;20026;-75
2022/12/02 09:55:57;;;;;;;45.58;21.80;;;;;;;;;;10362252;28;20487;-82
2022/12/02 10:00:57;;;;;;;53.35;22.52;;;;;;;;;;10363774;28;20034;-75
2022/12/02 10:05:59;;;;;;;44.93;21.00;;;;;;;;;;10366958;28;20053;-80
2022/12/02 10:11:00;;;;;;;42.25;21.48;;;;;;;;;;10350396;28;20102;-76
2022/12/02 10:16:02;;;;;;;53.75;23.25;;;;;;;;;;10373042;28;20045;-76
2022/12/02 10:21:02;;;;;;;52.45;22.25;;;;;;;;;;10376943;28;20026;-77
2022/12/02 10:26:05;;;;;;;47.38;23.80;;;;;;;;;;10394172;28;20419;-78
2022/12/02 10:31:21;;;;;;;48.78;23.38;;;;;;;;;;10396757;28;20030;-76
2022/12/02 10:36:38;;;;;;;45.13;23.08;;;;;;;;;;10404851;28;20112;-75
2022/12/02 10:41:38;;;;;;;50.58;24.30;;;;;;;;;;10405106;28;20021;-80
2022/12/02 10:46:39;;;;;;;57.88;25.60;;;;;;;;;;10401023;28;20017;-74
2022/12/02 10:51:39;;;;;;;55.08;24.83;;;;;;;;;;10400047;28;20026;-74
2022/12/02 10:56:41;;;;;;;50.65;23.10;;;;;;;;;;10402743;28;20059;-76
2022/12/02 11:01:42;;;;;;;57.92;27.73;;;;;;;;;;10404413;28;20072;-76
2022/12/02 11:06:45;;;;;;;42.53;21.80;;;;;;;;;;10414814;28;20080;-75
2022/12/02 11:11:45;;;;;;;52.08;24.42;;;;;;;;;;10375547;28;20033;-77
2022/12/02 11:17:02;;;;;;;54.55;24.55;;;;;;;;;;10408317;28;20384;-82
2022/12/02 11:22:03;;;;;;;44.13;22.05;;;;;;;;;;10400539;28;20021;-77
2022/12/02 11:27:06;;;;;;;45.00;22.77;;;;;;;;;;10401160;28;20041;-77
2022/12/02 11:32:25;;;;;;;53.58;23.42;;;;;;;;;;10401855;28;20059;-76
2022/12/02 11:37:25;;;;;;;;;;;;;;;;;;10402821;28;20067;-79
2022/12/02 11:42:27;;;;;;;46.87;21.50;;;;;;;;;;10401371;28;20523;-76
2022/12/02 11:47:27;;;;;;;44.78;21.10;;;;;;;;;;10403013;28;20355;-75
2022/12/02 11:52:29;;;;;;;48.63;20.73;;;;;;;;;;10401258;28;20486;-78
2022/12/02 11:57:30;;;;;;;53.53;22.42;;;;;;;;;;10386228;28;20024;-76
2022/12/02 12:02:31;;;;;;;51.85;22.48;;;;;;;;;;10401271;28;20069;-78
2022/12/02 12:07:41;;;;;;;59.28;24.25;;;;;;;;;;10399529;28;20116;-76
2022/12/02 12:13:01;;;;;;;53.42;23.42;;;;;;;;;;10400973;28;20029;-76
2022/12/02 12:18:01;;;;;;;58.00;24.98;;;;;;;;;;10388441;28;20057;-78
2022/12/02 12:23:20;;;;;;;54.95;24.02;;;;;;;;;;10389263;28;20132;-76
2022/12/02 12:28:23;;;;;;;60.15;27.25;;;;;;;;;;10399385;28;20040;-75
2022/12/02 12:33:24;;;;;;;62.47;26.70;;;;;;;;;;10390194;28;20598;-76
2022/12/02 12:38:27;;;;;;;62.77;25.23;;;;;;;;;;10390306;28;20063;-80
2022/12/02 12:43:28;;;;;;;70.72;27.52;;;;;;;;;;10405706;28;20021;-80
2022/12/02 12:48:29;;;;;;;62.85;27.35;;;;;;;;;;10377704;28;20688;-80
2022/12/02 12:53:29;;;;;;;67.93;27.23;;;;;;;;;;10376565;28;20037;-82
2022/12/02 12:58:30;;;;;;;72.03;27.23;;;;;;;;;;10383613;28;20030;-85
2022/12/02 13:03:30;;;;;;;65.35;25.95;;;;;;;;;;10390524;28;20311;-79
2022/12/02 13:08:32;;;;;;;69.03;26.85;;;;;;;;;;10396443;28;20032;-81
2022/12/02 13:13:32;;;;;;;62.95;26.40;;;;;;;;;;10396159;28;20041;-81
2022/12/02 13:18:33;;;;;;;67.03;25.75;;;;;;;;;;10394329;28;20101;-80
2022/12/02 13:23:36;;;;;;;68.97;26.70;;;;;;;;;;10413089;28;20021;-75
2022/12/02 13:28:38;;;;;;;64.38;27.00;;;;;;;;;;10419556;28;20032;-71
2022/12/02 13:33:39;;;;;;;64.03;27.08;;;;;;;;;;10399197;28;20057;-78
2022/12/02 13:38:42;;;;;;;71.88;27.00;;;;;;;;;;10414006;28;20079;-82
2022/12/02 13:43:42;;;;;;;76.15;27.25;;;;;;;;;;10396840;28;20044;-77
2022/12/02 13:48:45;;;;;;;65.90;27.48;;;;;;;;;;10396832;28;20026;-84
2022/12/02 13:53:46;;;;;;;68.05;26.90;;;;;;;;;;10394209;28;20056;-83
2022/12/02 13:58:49;;;;;;;65.18;26.80;;;;;;;;;;10393129;28;20014;-83
2022/12/02 14:03:50;;;;;;;69.93;29.15;;;;;;;;;;10380933;28;20816;-81
2022/12/02 14:08:50;;;;;;;78.33;29.83;;;;;;;;;;10383457;28;20075;-81
2022/12/02 14:13:50;;;;;;;76.60;27.30;;;;;;;;;;10386737;28;20037;-79
2022/12/02 14:18:50;;;;;;;70.43;27.23;;;;;;;;;;10391032;28;20021;-80
2022/12/02 14:23:51;;;;;;;74.85;29.10;;;;;;;;;;10392504;28;20124;-78
2022/12/02 14:28:54;;;;;;;75.00;29.53;;;;;;;;;;10368177;28;20040;-80
2022/12/02 14:33:54;;;;;;;89.07;30.42;;;;;;;;;;10370049;28;20802;-81
2022/12/02 14:38:55;;;;;;;85.45;29.38;;;;;;;;;;10393332;28;20033;-74
2022/12/02 14:43:55;;;;;;;79.68;32.17;;;;;;;;;;10378793;28;20033;-75
2022/12/02 14:48:56;;;;;;;84.20;29.13;;;;;;;;;;10376444;28;20405;-83
2022/12/02 14:53:56;;;;;;;81.10;29.75;;;;;;;;;;10384304;28;20025;-74
2022/12/02 14:58:56;;;;;;;78.95;32.22;;;;;;;;;;10400021;28;20029;-79
2022/12/02 15:03:56;;;;;;;80.18;31.90;;;;;;;;;;10404031;28;20061;-82
2022/12/02 15:08:57;;;;;;;85.15;29.73;;;;;;;;;;10391584;28;20392;-84
2022/12/02 15:13:57;;;;;;;72.50;28.40;;;;;;;;;;10392438;28;20077;-82
2022/12/02 15:18:58;;;;;;;81.18;30.92;;;;;;;;;;10397648;28;20041;-83
2022/12/02 15:23:58;;;;;;;76.05;29.13;;;;;;;;;;10391501;28;20029;-82
2022/12/02 15:28:58;;;;;;;65.45;28.40;;;;;;;;;;10389955;28;20029;-81
2022/12/02 15:34:00;;;;;;;79.07;29.93;;;;;;;;;;10378358;28;20034;-81
2022/12/02 15:39:00;;;;;;;68.60;29.90;;;;;;;;;;10393506;28;20118;-81
2022/12/02 15:44:02;;;;;;;76.93;28.50;;;;;;;;;;10379905;28;20040;-76
2022/12/02 15:49:03;;;;;;;72.32;30.17;;;;;;;;;;10409833;28;20094;-73
2022/12/02 15:54:03;;;;;;;61.15;28.10;;;;;;;;;;10416865;28;20086;-73
2022/12/02 15:59:04;;;;;;;72.20;27.67;;;;;;;;;;10416194;28;20067;-79
2022/12/02 16:04:04;;;;;;;68.75;28.23;;;;;;;;;;10416150;28;20167;-74
2022/12/02 16:09:05;;;;;;;60.92;27.98;;;;;;;;;;10414066;28;20036;-79
2022/12/02 16:14:08;;;;;;;67.87;28.10;;;;;;;;;;10417736;28;20059;-76
2022/12/02 16:19:08;;;;;;;70.22;27.60;;;;;;;;;;10413198;28;20101;-77
2022/12/02 16:24:08;;;;;;;70.15;28.63;;;;;;;;;;10404010;28;20120;-77
2022/12/02 16:29:09;;;;;;;66.13;27.35;;;;;;;;;;10407888;28;20026;-79
2022/12/02 16:34:15;;;;;;;68.07;27.17;;;;;;;;;;10396517;28;20033;-78
2022/12/02 16:39:15;;;;;;;65.03;25.95;;;;;;;;;;10388316;28;20033;-76
2022/12/02 16:44:15;;;;;;;58.08;25.42;;;;;;;;;;10393549;28;20458;-78
2022/12/02 16:49:16;;;;;;;65.97;25.38;;;;;;;;;;10397388;28;20381;-80
2022/12/02 16:54:16;;;;;;;52.45;25.70;;;;;;;;;;10395843;28;20455;-79
2022/12/02 16:59:17;;;;;;;64.07;27.00;;;;;;;;;;10442592;22;20443;-75
2022/12/02 17:04:18;;;;;;;60.92;24.65;;;;;;;;;;10406661;28;20032;-76
2022/12/02 17:09:18;;;;;;;57.30;25.50;;;;;;;;;;10414743;28;20056;-76
2022/12/02 17:14:18;;;;;;;61.38;26.85;;;;;;;;;;10411168;28;20451;-76
2022/12/02 17:19:18;;;;;;;54.03;23.58;;;;;;;;;;10426952;28;20530;-78
2022/12/02 17:24:19;;;;;;;53.25;24.10;;;;;;;;;;10411984;28;20476;-76
2022/12/02 17:29:19;;;;;;;53.40;24.35;;;;;;;;;;10397132;28;20044;-76
2022/12/02 17:34:21;;;;;;;55.35;25.20;;;;;;;;;;10388228;28;20471;-74
2022/12/02 17:39:23;;;;;;;53.45;24.98;;;;;;;;;;10373997;28;20629;-77
2022/12/02 17:44:26;;;;;;;62.97;26.67;;;;;;;;;;10395370;28;20014;-84
2022/12/02 17:49:27;;;;;;;60.42;27.73;;;;;;;;;;10388429;28;20518;-77
2022/12/02 17:54:27;;;;;;;62.40;27.50;;;;;;;;;;10377344;28;20699;-77
2022/12/02 17:59:27;;;;;;;66.15;30.92;;;;;;;;;;10338117;28;20058;-81
2022/12/02 18:04:28;;;;;;;67.55;30.80;;;;;;;;;;10343020;28;20034;-75
2022/12/02 18:09:28;;;;;;;60.75;29.73;;;;;;;;;;10361463;28;20097;-74
2022/12/02 18:14:28;;;;;;;69.20;27.27;;;;;;;;;;10368222;28;20026;-74
2022/12/02 18:19:28;;;;;;;74.50;26.85;;;;;;;;;;10357499;28;20022;-77
2022/12/02 18:24:29;;;;;;;57.05;27.48;;;;;;;;;;10346862;28;20542;-77
2022/12/02 18:29:29;;;;;;;65.07;27.15;;;;;;;;;;10352672;28;20735;-75
2022/12/02 18:34:30;;;;;;;64.65;25.65;;;;;;;;;;10343760;28;20108;-78
2022/12/02 18:39:31;;;;;;;73.90;27.87;;;;;;;;;;10345875;28;20087;-82
2022/12/02 18:44:31;;;;;;;72.37;29.43;;;;;;;;;;10341893;28;20846;-82
2022/12/02 18:49:37;;;;;;;65.63;25.88;;;;;;;;;;10339429;28;20026;-83
2022/12/02 18:54:58;;;;;;;62.83;26.45;;;;;;;;;;10353292;28;20045;-78
2022/12/02 19:00:09;;;;;;;61.05;25.50;;;;;;;;;;10417983;28;20037;-78
2022/12/02 19:05:09;;;;;;;59.90;26.48;;;;;;;;;;10408636;28;20498;-78
2022/12/02 19:10:11;;;;;;;61.90;26.67;;;;;;;;;;10411022;28;20029;-81
2022/12/02 19:15:13;;;;;;;56.00;25.45;;;;;;;;;;10424003;28;20470;-77
2022/12/02 19:20:14;;;;;;;64.95;27.17;;;;;;;;;;10438821;28;20022;-83
2022/12/02 19:25:16;;;;;;;56.67;24.38;;;;;;;;;;10406413;28;20017;-82
2022/12/02 19:30:16;;;;;;;57.00;23.50;;;;;;;;;;10402468;28;20016;-81
2022/12/02 19:35:20;;;;;;;58.70;25.00;;;;;;;;;;10400511;28;20029;-81
2022/12/02 19:40:22;;;;;;;59.10;24.30;;;;;;;;;;10392234;28;20065;-80
2022/12/02 19:45:22;;;;;;;56.05;25.73;;;;;;;;;;10424603;28;20114;-82
2022/12/02 19:50:22;;;;;;;52.85;26.60;;;;;;;;;;10410613;28;20021;-76
2022/12/02 19:55:24;;;;;;;58.45;26.70;;;;;;;;;;10401246;28;20518;-80
2022/12/02 20:00:25;;;;;;;64.30;29.00;;;;;;;;;;10388709;28;20021;-80
2022/12/02 20:05:26;;;;;;;68.10;27.38;;;;;;;;;;10404391;28;20027;-78
2022/12/02 20:10:27;;;;;;;67.10;26.27;;;;;;;;;;10409753;28;20029;-75
2022/12/02 20:15:27;;;;;;;67.15;27.30;;;;;;;;;;10396990;28;20022;-75
2022/12/02 20:20:27;;;;;;;69.00;28.33;;;;;;;;;;10407214;28;20549;-73
2022/12/02 20:25:28;;;;;;;73.97;28.67;;;;;;;;;;10458908;28;20025;-73
2022/12/02 20:30:29;;;;;;;61.17;24.57;;;;;;;;;;10431549;28;20021;-74
2022/12/02 20:35:29;;;;;;;52.90;22.02;;;;;;;;;;10429341;28;20284;-75
2022/12/02 20:40:29;;;;;;;54.05;20.60;;;;;;;;;;10453323;22;20519;-80
2022/12/02 20:45:29;;;;;;;43.15;19.30;;;;;;;;;;10416304;28;20580;-75
2022/12/02 20:50:30;;;;;;;41.28;18.33;;;;;;;;;;10417731;28;20495;-79
2022/12/02 20:55:30;;;;;;;49.97;19.52;;;;;;;;;;10419719;28;20414;-78
2022/12/02 21:00:31;;;;;;;61.95;21.67;;;;;;;;;;10405909;28;20120;-78
2022/12/02 21:05:33;;;;;;;50.83;22.25;;;;;;;;;;10416483;28;20066;-84
2022/12/02 21:10:33;;;;;;;59.20;20.65;;;;;;;;;;10413552;28;20125;-81
2022/12/02 21:15:34;;;;;;;63.33;22.77;;;;;;;;;;10407625;28;20375;-78
2022/12/02 21:20:34;;;;;;;53.60;22.25;;;;;;;;;;10414322;28;20016;-76
2022/12/02 21:25:34;;;;;;;69.73;27.13;;;;;;;;;;10415665;28;20084;-77
2022/12/02 21:30:37;;;;;;;69.18;29.40;;;;;;;;;;10373872;28;20333;-78
2022/12/02 21:35:37;;;;;;;73.15;32.63;;;;;;;;;;10386435;28;20048;-77
2022/12/02 21:40:37;;;;;;;79.40;36.42;;;;;;;;;;10393729;28;20056;-78
2022/12/02 21:45:37;;;;;;;91.88;40.38;;;;;;;;;;10377098;28;20021;-80
2022/12/02 21:50:38;;;;;;;85.37;38.67;;;;;;;;;;10379398;28;20022;-79
2022/12/02 21:55:38;;;;;;;90.53;39.75;;;;;;;;;;10383477;28;20052;-77
2022/12/02 22:00:38;;;;;;;89.22;37.80;;;;;;;;;;10388595;28;20087;-76
2022/12/02 22:05:45;;;;;;;88.25;37.90;;;;;;;;;;10389324;28;20030;-79
2022/12/02 22:10:46;;;;;;;71.15;31.73;;;;;;;;;;10377629;28;20088;-81
2022/12/02 22:15:46;;;;;;;72.03;33.97;;;;;;;;;;10399676;28;20340;-81
2022/12/02 22:20:47;;;;;;;39.17;16.45;;;;;;;;;;10382030;28;20037;-75
2022/12/02 22:25:47;;;;;;;26.15;12.65;;;;;;;;;;10378612;28;20045;-75
2022/12/02 22:30:49;;;;;;;20.98;9.73;;;;;;;;;;10402681;22;20115;-76
2022/12/02 22:35:50;;;;;;;21.95;10.23;;;;;;;;;;10421513;28;20024;-75
2022/12/02 22:40:51;;;;;;;34.25;14.20;;;;;;;;;;10421489;28;20025;-76
2022/12/02 22:45:52;;;;;;;21.08;10.10;;;;;;;;;;10414946;28;20033;-78
2022/12/02 22:50:52;;;;;;;21.38;9.02;;;;;;;;;;10418829;28;20055;-75
2022/12/02 22:55:52;;;;;;;25.70;12.40;;;;;;;;;;10406729;28;20067;-75
2022/12/02 23:00:53;;;;;;;21.52;10.00;;;;;;;;;;10394496;28;20022;-81
2022/12/02 23:05:53;;;;;;;20.70;10.73;;;;;;;;;;10386463;28;20035;-83
2022/12/02 23:10:53;;;;;;;24.13;10.80;;;;;;;;;;10407968;28;20543;-80
2022/12/02 23:15:53;;;;;;;22.02;9.30;;;;;;;;;;10408512;28;20025;-83
2022/12/02 23:20:54;;;;;;;21.17;8.00;;;;;;;;;;10389615;28;20038;-77
2022/12/02 23:25:54;;;;;;;18.63;8.48;;;;;;;;;;10405287;28;20029;-81
2022/12/02 23:30:54;;;;;;;16.77;8.05;;;;;;;;;;10401281;28;20053;-76
2022/12/02 23:35:55;;;;;;;20.83;10.23;;;;;;;;;;10387949;28;20056;-74
2022/12/02 23:41:17;;;;;;;17.52;10.10;;;;;;;;;;10389119;28;20033;-80
2022/12/02 23:46:17;;;;;;;15.13;8.60;;;;;;;;;;10385842;28;20029;-79
2022/12/02 23:51:18;;;;;;;19.15;9.15;;;;;;;;;;10373281;28;20040;-81
2022/12/02 23:56:18;;;;;;;26.30;10.03;;;;;;;;;;10403507;28;20043;-76
